Time;durP1;ratioP1;P1;durP2;ratioP2;P2;SDS_P1;SDS_P2;PMS_P1;PMS_P2;Temp;Humidity;BMP_temperature;BMP_pressure;BME280_temperature;BME280_humidity;BME280_pressure;Samples;Min_cycle;Max_cycle;Signal;HPM_P1;HPM_P2
2022/05/12 00:00:00;;;;;;;5.20;4.80;;;19.00;63.40;;;;;;4991823;28;20480;-96
2022/05/12 00:02:25;;;;;;;4.37;4.00;;;19.40;64.50;;;;;;4971577;28;20962;-96
2022/05/12 00:04:51;;;;;;;4.63;4.07;;;19.60;63.70;;;;;;4982092;28;20471;-96
2022/05/12 00:07:19;;;;;;;4.80;4.30;;;18.80;62.60;;;;;;4984948;28;20200;-96
2022/05/12 00:09:45;;;;;;;3.40;3.20;;;18.90;65.20;;;;;;4987523;28;20185;-96
2022/05/12 00:12:11;;;;;;;3.97;3.47;;;19.00;64.50;;;;;;4991814;28;20435;-96
2022/05/12 00:14:36;;;;;;;4.00;3.70;;;18.90;63.60;;;;;;4989526;28;20276;-96
2022/05/12 00:17:04;;;;;;;4.37;4.07;;;19.20;63.30;;;;;;4987385;28;20185;-96
2022/05/12 00:19:30;;;;;;;4.70;4.30;;;19.00;62.70;;;;;;4990955;28;20316;-96
2022/05/12 00:21:56;;;;;;;4.10;3.80;;;19.10;64.40;;;;;;4970961;28;20624;-96
2022/05/12 00:24:21;;;;;;;4.57;4.07;;;19.20;64.10;;;;;;4986563;28;20205;-96
2022/05/12 00:26:50;;;;;;;4.10;3.80;;;20.20;64.40;;;;;;4979661;28;20189;-96
2022/05/12 00:29:15;;;;;;;4.37;4.00;;;20.40;64.80;;;;;;4991360;28;20185;-96
2022/05/12 00:31:45;;;;;;;5.50;4.03;;;20.10;64.80;;;;;;4987028;28;20532;-96
2022/05/12 00:34:12;;;;;;;3.87;3.63;;;20.60;64.40;;;;;;4987672;28;20224;-96
2022/05/12 00:36:45;;;;;;;3.83;3.50;;;20.20;63.00;;;;;;5017657;28;20456;-96
2022/05/12 00:39:25;;;;;;;4.13;3.30;;;20.10;63.20;;;;;;5012687;28;20437;-96
2022/05/12 00:41:51;;;;;;;3.77;3.47;;;19.70;63.40;;;;;;4996084;28;20463;-96
2022/05/12 00:44:19;;;;;;;3.97;3.67;;;20.80;64.30;;;;;;4991726;28;20200;-96
2022/05/12 00:46:53;;;;;;;4.63;4.23;;;19.90;62.50;;;;;;4996423;28;20194;-96
2022/05/12 00:49:34;;;;;;;4.20;3.90;;;20.00;61.80;;;;;;5002400;28;20621;-96
2022/05/12 00:52:09;;;;;;;5.00;4.50;;;20.10;61.90;;;;;;4995574;28;20506;-96
2022/05/12 00:54:51;;;;;;;4.40;4.00;;;20.10;61.60;;;;;;4980212;28;20539;-96
2022/05/12 00:57:25;;;;;;;5.53;4.10;;;20.00;61.80;;;;;;4988338;28;20447;-96
2022/05/12 00:59:50;;;;;;;5.40;4.00;;;21.00;62.90;;;;;;4980017;28;20444;-96
2022/05/12 01:02:20;;;;;;;4.23;3.63;;;20.30;63.10;;;;;;4961061;28;20452;-95
2022/05/12 01:04:50;;;;;;;4.23;3.90;;;19.70;62.10;;;;;;4960210;28;20280;-96
2022/05/12 01:07:16;;;;;;;4.03;3.73;;;19.90;63.10;;;;;;4984144;28;20448;-96
2022/05/12 01:09:45;;;;;;;3.73;3.43;;;20.10;66.30;;;;;;4994516;28;20459;-96
2022/05/12 01:12:39;;;;;;;3.80;3.60;;;19.70;65.10;;;;;;5014041;28;20269;-96
2022/05/12 03:46:15;;;;;;;4.67;4.37;;;17.10;87.90;;;;;;4993394;28;20780;-95
2022/05/12 03:48:41;;;;;;;5.33;4.50;;;17.10;89.30;;;;;;4974719;28;20461;-95
2022/05/12 03:51:08;;;;;;;5.43;4.57;;;17.10;89.00;;;;;;4972888;28;24248;-96
2022/05/12 03:53:34;;;;;;;5.00;4.60;;;17.10;89.40;;;;;;4995205;28;20479;-96
2022/05/12 03:56:04;;;;;;;5.40;5.10;;;17.10;89.10;;;;;;4992771;28;20456;-96
2022/05/12 03:58:33;;;;;;;5.50;4.70;;;17.10;89.20;;;;;;4975382;28;21062;-92
2022/05/12 04:00:59;;;;;;;7.43;5.20;;;17.70;90.20;;;;;;4996961;28;20446;-95
2022/05/12 04:03:24;;;;;;;5.67;5.03;;;17.00;90.30;;;;;;4979694;28;20501;-95
2022/05/12 04:05:55;;;;;;;6.20;4.30;;;17.00;89.70;;;;;;5000399;28;20467;-94
2022/05/12 04:08:24;;;;;;;6.77;4.80;;;17.50;90.30;;;;;;5000336;28;20454;-94
2022/05/12 04:10:54;;;;;;;8.57;5.50;;;17.00;90.00;;;;;;4981412;28;20523;-93
2022/05/12 04:13:20;;;;;;;5.27;4.87;;;17.00;90.10;;;;;;4998382;28;20480;-94
2022/05/12 04:15:46;;;;;;;5.87;5.37;;;17.60;91.00;;;;;;5002359;28;20427;-94
2022/05/12 04:18:12;;;;;;;5.03;4.63;;;17.80;91.60;;;;;;4993130;28;20249;-96
2022/05/12 04:20:40;;;;;;;6.77;4.80;;;17.00;91.10;;;;;;5007615;28;20540;-94
2022/05/12 04:23:09;;;;;;;9.43;5.47;;;17.00;91.60;;;;;;4991824;28;20185;-95
2022/05/12 04:25:35;;;;;;;5.10;4.70;;;17.30;91.70;;;;;;5002215;28;20811;-95
2022/05/12 04:28:01;;;;;;;8.50;5.50;;;16.90;91.20;;;;;;4973723;28;20448;-95
2022/05/12 04:30:27;;;;;;;5.60;5.10;;;17.00;91.20;;;;;;4995722;28;20177;-96
2022/05/12 04:32:53;;;;;;;5.13;4.63;;;17.10;91.70;;;;;;4978583;28;20473;-96
2022/05/12 04:35:20;;;;;;;5.70;5.20;;;17.10;90.90;;;;;;4988729;28;20188;-96
2022/05/12 04:37:52;;;;;;;8.27;4.90;;;17.20;91.40;;;;;;4993907;28;20519;-95
2022/05/12 04:40:31;;;;;;;4.60;4.30;;;17.20;91.30;;;;;;5139616;23;20485;-96
2022/05/12 04:42:59;;;;;;;5.50;5.00;;;17.20;91.20;;;;;;4955062;28;22124;-94
2022/05/12 04:45:31;;;;;;;5.00;4.60;;;17.30;91.50;;;;;;4970440;28;20440;-95
2022/05/12 04:48:00;;;;;;;5.37;5.03;;;17.70;92.10;;;;;;4960498;28;20441;-94
2022/05/12 04:50:31;;;;;;;5.53;5.03;;;17.30;91.60;;;;;;4953747;28;20448;-95
2022/05/12 04:52:57;;;;;;;5.00;4.57;;;18.00;92.10;;;;;;4966011;28;20468;-96
2022/05/12 04:55:25;;;;;;;5.57;5.07;;;17.60;91.90;;;;;;4974676;28;20444;-93
2022/05/12 04:57:57;;;;;;;5.23;4.83;;;17.70;92.80;;;;;;4955192;28;20465;-94
2022/05/12 05:00:35;;;;;;;8.67;4.97;;;17.70;93.00;;;;;;4972035;28;20842;-94
2022/05/12 05:03:06;;;;;;;4.80;4.43;;;17.70;93.90;;;;;;4967684;28;20566;-93
2022/05/12 05:05:39;;;;;;;5.30;4.80;;;17.70;94.50;;;;;;4976895;28;20523;-93
2022/05/12 05:08:07;;;;;;;5.30;4.90;;;17.70;94.50;;;;;;4977882;28;20571;-93
2022/05/12 05:10:53;;;;;;;7.40;4.70;;;17.80;93.70;;;;;;4962060;28;20440;-94
2022/05/12 05:13:22;;;;;;;6.60;4.80;;;17.90;94.30;;;;;;4976678;28;20484;-95
2022/05/12 05:15:49;;;;;;;4.33;4.03;;;18.00;93.20;;;;;;4964668;28;20467;-94
2022/05/12 05:18:17;;;;;;;4.87;4.40;;;18.20;92.90;;;;;;4976445;28;20452;-95
2022/05/12 05:20:44;;;;;;;4.57;4.17;;;18.40;92.70;;;;;;4954357;28;20445;-94
2022/05/12 05:23:11;;;;;;;7.60;4.40;;;18.50;93.50;;;;;;4970358;28;21660;-95
2022/05/12 05:25:38;;;;;;;4.87;4.47;;;18.50;93.20;;;;;;4951723;28;20479;-95
2022/05/12 05:28:16;;;;;;;4.47;4.17;;;18.60;93.00;;;;;;4955114;28;20449;-94
2022/05/12 05:30:43;;;;;;;5.20;3.73;;;19.30;92.90;;;;;;4975153;28;21041;-94
2022/05/12 05:33:15;;;;;;;4.30;3.83;;;18.70;92.70;;;;;;4968753;28;20482;-94
2022/05/12 05:36:03;;;;;;;5.10;4.50;;;18.70;92.70;;;;;;4956176;28;20444;-95
2022/05/12 05:38:31;;;;;;;6.97;4.30;;;18.70;92.90;;;;;;4973390;28;20457;-94
2022/05/12 05:41:17;;;;;;;4.40;4.00;;;18.70;92.70;;;;;;4968922;28;20437;-92
2022/05/12 05:44:08;;;;;;;4.87;4.37;;;18.70;92.60;;;;;;4955340;28;20449;-95
2022/05/12 05:46:35;;;;;;;4.53;3.83;;;18.80;93.00;;;;;;4968459;28;20448;-93
2022/05/12 05:49:00;;;;;;;5.70;4.40;;;18.90;92.90;;;;;;4954698;28;20448;-91
2022/05/12 05:54:13;;;;;;;6.97;4.50;;;19.60;93.00;;;;;;4948260;28;20223;-90
2022/05/12 05:56:43;;;;;;;5.23;4.30;;;19.90;93.00;;;;;;4968907;28;20563;-92
2022/05/12 05:59:10;;;;;;;5.73;5.17;;;19.40;92.90;;;;;;4954936;28;20953;-90
2022/05/12 06:02:04;;;;;;;5.03;3.97;;;19.80;92.80;;;;;;4956207;28;21290;-93
2022/05/12 06:04:40;;;;;;;4.90;4.50;;;19.70;92.50;;;;;;4929196;28;20445;-93
2022/05/12 06:07:19;;;;;;;3.80;3.50;;;19.70;92.50;;;;;;4960565;28;20459;-91
2022/05/12 06:10:02;;;;;;;5.30;4.07;;;20.00;92.20;;;;;;4951272;28;20427;-92
2022/05/12 06:12:49;;;;;;;8.00;3.97;;;19.90;92.00;;;;;;4933056;28;20448;-90
2022/05/12 06:15:35;;;;;;;3.83;3.50;;;19.80;92.50;;;;;;4956024;28;20444;-92
2022/05/12 06:18:17;;;;;;;3.67;3.30;;;20.40;93.00;;;;;;4968040;28;20555;-92
2022/05/12 06:20:47;;;;;;;3.80;3.40;;;19.30;92.90;;;;;;4951560;28;21011;-90
2022/05/12 06:23:24;;;;;;;3.93;3.63;;;19.30;93.70;;;;;;4966230;28;20440;-96
2022/05/12 07:15:05;;;;;;;2.60;2.40;;;19.90;93.70;;;;;;4928749;28;21129;-89
2022/05/12 07:17:32;;;;;;;3.43;2.87;;;19.90;93.60;;;;;;4904128;28;20458;-89
2022/05/12 07:26:35;;;;;;;3.23;3.03;;;20.50;93.90;;;;;;4896535;28;20502;-90
2022/05/12 07:28:15;;;;;;;6.13;3.50;;;20.00;94.40;;;;;;4905504;28;20438;-85
2022/05/12 07:33:24;;;;;;;3.43;3.20;;;20.10;93.40;;;;;;4924089;28;20541;-91
2022/05/12 07:35:50;;;;;;;5.03;2.90;;;20.10;93.00;;;;;;4915794;28;20452;-91
2022/05/12 07:38:25;;;;;;;3.90;3.17;;;20.30;93.70;;;;;;4906616;28;20281;-94
2022/05/12 07:40:51;;;;;;;3.03;2.80;;;20.60;93.40;;;;;;4917320;28;20293;-93
2022/05/12 07:43:35;;;;;;;2.80;2.67;;;20.70;93.00;;;;;;4928278;28;20556;-92
2022/05/12 07:46:01;;;;;;;3.80;3.30;;;20.60;93.10;;;;;;4926299;28;20430;-91
2022/05/12 07:48:26;;;;;;;4.10;3.20;;;20.50;93.20;;;;;;4925903;28;20463;-91
2022/05/12 07:50:52;;;;;;;3.17;2.87;;;20.50;92.70;;;;;;4920040;28;20682;-91
2022/05/12 07:53:18;;;;;;;3.27;3.07;;;20.50;93.00;;;;;;4931733;28;20218;-91
2022/05/12 07:55:44;;;;;;;3.97;2.90;;;20.60;92.80;;;;;;4912783;28;20183;-90
2022/05/12 07:58:11;;;;;;;4.07;3.67;;;20.80;93.10;;;;;;4927460;28;20490;-86
2022/05/12 08:00:37;;;;;;;4.07;2.80;;;20.70;93.00;;;;;;4919904;28;20450;-88
2022/05/12 08:03:03;;;;;;;3.20;2.90;;;20.60;92.90;;;;;;4906452;28;20446;-90
2022/05/12 08:05:41;;;;;;;3.43;3.13;;;20.90;93.60;;;;;;4924339;28;21067;-90
2022/05/12 08:08:07;;;;;;;3.73;3.43;;;21.20;93.30;;;;;;4906723;28;20202;-88
2022/05/12 08:10:36;;;;;;;3.23;2.93;;;21.30;92.90;;;;;;4907775;28;20485;-89
2022/05/12 08:13:04;;;;;;;3.80;3.10;;;21.00;93.00;;;;;;4933147;28;20488;-89
2022/05/12 08:15:41;;;;;;;5.33;3.80;;;21.70;93.00;;;;;;4906023;28;20443;-90
2022/05/12 08:18:08;;;;;;;3.77;3.47;;;21.30;91.90;;;;;;4928878;28;20430;-90
2022/05/12 08:20:34;;;;;;;3.30;3.00;;;21.10;93.60;;;;;;4910875;28;20478;-89
2022/05/12 08:23:00;;;;;;;8.70;3.00;;;21.10;93.70;;;;;;4908611;28;20841;-90
2022/05/12 08:25:26;;;;;;;3.40;3.10;;;21.60;93.70;;;;;;4908357;28;20457;-91
2022/05/12 08:27:51;;;;;;;5.67;2.93;;;22.00;94.10;;;;;;4914642;29;20645;-90
2022/05/12 08:30:18;;;;;;;3.40;3.10;;;21.30;94.00;;;;;;4914078;28;20199;-91
2022/05/12 08:32:44;;;;;;;3.10;2.80;;;21.40;93.60;;;;;;4905180;28;20249;-89
2022/05/12 08:35:13;;;;;;;2.50;2.30;;;21.30;93.30;;;;;;4902087;28;20454;-89
2022/05/12 08:37:39;;;;;;;3.10;2.90;;;21.40;93.60;;;;;;4921023;28;20458;-89
2022/05/12 08:40:22;;;;;;;5.10;2.80;;;21.30;94.20;;;;;;4914870;28;20451;-92
2022/05/12 08:42:50;;;;;;;5.87;2.87;;;21.30;93.30;;;;;;4922594;28;20482;-90
2022/05/12 08:45:18;;;;;;;3.10;2.87;;;20.90;94.20;;;;;;4916432;28;20995;-89
2022/05/12 08:47:47;;;;;;;3.73;3.00;;;20.80;94.00;;;;;;4898506;28;20225;-87
2022/05/12 08:50:32;;;;;;;4.43;3.23;;;21.60;94.30;;;;;;4897135;28;20760;-88
2022/05/12 08:53:05;;;;;;;3.23;2.90;;;20.90;94.20;;;;;;4896271;28;20484;-88
2022/05/12 08:55:35;;;;;;;4.67;2.90;;;21.10;93.80;;;;;;4900792;28;20470;-87
2022/05/12 08:58:14;;;;;;;3.37;3.00;;;21.10;93.60;;;;;;4911934;28;22330;-88
2022/05/12 09:00:42;;;;;;;4.80;2.93;;;21.20;93.80;;;;;;4912418;28;21153;-91
2022/05/12 09:03:29;;;;;;;3.90;3.07;;;21.50;93.50;;;;;;4904258;28;20454;-89
2022/05/12 09:06:01;;;;;;;4.13;3.57;;;21.60;93.10;;;;;;4904117;28;20468;-90
2022/05/12 09:09:00;;;;;;;3.60;3.30;;;21.40;93.40;;;;;;4899683;28;20451;-89
2022/05/12 09:11:40;;;;;;;3.90;3.20;;;21.40;93.30;;;;;;4895975;28;20561;-90
2022/05/12 09:14:29;;;;;;;3.70;3.23;;;21.80;93.30;;;;;;4897035;28;21167;-88
2022/05/12 09:17:04;;;;;;;4.13;3.80;;;22.00;92.70;;;;;;4892151;28;20474;-87
2022/05/12 09:19:30;;;;;;;3.60;3.30;;;22.10;92.90;;;;;;4908857;28;20765;-89
2022/05/12 09:21:56;;;;;;;3.83;3.53;;;21.80;92.00;;;;;;4906655;28;20455;-90
2022/05/12 09:24:28;;;;;;;4.07;3.70;;;21.60;92.80;;;;;;4897333;28;20669;-89
2022/05/12 09:27:29;;;;;;;3.43;3.13;;;21.90;92.80;;;;;;4910164;28;20225;-89
2022/05/12 09:30:04;;;;;;;3.77;3.47;;;22.00;92.50;;;;;;4914476;28;20434;-89
2022/05/12 09:32:39;;;;;;;4.30;3.83;;;22.20;92.80;;;;;;4910033;28;20451;-90
2022/05/12 09:35:11;;;;;;;5.83;3.87;;;22.30;92.30;;;;;;4911313;28;20537;-90
2022/05/12 09:37:40;;;;;;;3.80;3.50;;;22.30;92.50;;;;;;4897057;28;21058;-91
2022/05/12 09:40:37;;;;;;;4.33;3.93;;;22.30;91.90;;;;;;4903375;28;20601;-91
2022/05/12 09:43:31;;;;;;;4.57;4.17;;;22.50;92.00;;;;;;4910581;28;20513;-91
2022/05/12 09:46:21;;;;;;;6.13;3.73;;;22.20;91.50;;;;;;4910048;28;20472;-88
2022/05/12 09:48:48;;;;;;;5.13;4.60;;;22.30;92.50;;;;;;4901003;28;20450;-91
2022/05/12 09:51:36;;;;;;;4.20;3.90;;;22.70;91.70;;;;;;4917364;28;20438;-92
2022/05/12 09:54:20;;;;;;;4.00;3.70;;;22.80;91.20;;;;;;4901136;28;21217;-93
2022/05/12 09:57:11;;;;;;;5.30;3.77;;;23.00;91.50;;;;;;4917691;28;20446;-88
2022/05/12 09:59:38;;;;;;;4.77;3.60;;;23.00;91.60;;;;;;4933463;28;20454;-90
2022/05/12 10:08:21;;;;;;;4.07;3.77;;;22.90;91.20;;;;;;4919998;28;20492;-91
2022/05/12 10:10:50;;;;;;;4.00;3.70;;;22.90;91.30;;;;;;4917396;28;20882;-91
2022/05/12 10:13:47;;;;;;;4.30;4.00;;;22.70;91.50;;;;;;4930479;28;20517;-90
2022/05/12 10:16:22;;;;;;;6.27;4.37;;;23.10;91.70;;;;;;4913418;28;20867;-90
2022/05/12 10:18:52;;;;;;;5.73;3.57;;;24.10;91.30;;;;;;4922230;29;21051;-91
2022/05/12 10:21:26;;;;;;;4.33;3.80;;;24.30;89.40;;;;;;4935454;28;20974;-91
2022/05/12 10:24:38;;;;;;;3.93;3.63;;;23.90;90.20;;;;;;4941989;28;20537;-94
2022/05/12 10:27:13;;;;;;;5.90;5.40;;;23.80;91.30;;;;;;4918057;29;20518;-94
2022/05/12 10:30:04;;;;;;;4.30;4.00;;;24.30;92.50;;;;;;4926190;28;20446;-96
2022/05/12 10:33:01;;;;;;;4.20;3.60;;;24.90;91.30;;;;;;4928336;28;20505;-93
2022/05/12 10:35:36;;;;;;;4.60;4.23;;;24.90;90.10;;;;;;4932860;28;20485;-96
2022/05/12 10:38:36;;;;;;;3.90;3.60;;;24.90;91.20;;;;;;4934605;29;20423;-95
2022/05/12 10:41:43;;;;;;;4.10;3.80;;;24.80;90.00;;;;;;4932721;29;20517;-95
2022/05/12 10:44:47;;;;;;;4.37;3.90;;;24.10;90.50;;;;;;4943890;28;20477;-95
2022/05/12 10:47:18;;;;;;;5.20;4.60;;;24.30;88.40;;;;;;4931588;28;20450;-94
2022/05/12 10:50:08;;;;;;;4.60;4.20;;;24.40;89.30;;;;;;4928009;28;20480;-94
2022/05/12 10:53:08;;;;;;;4.80;4.40;;;24.30;86.90;;;;;;4931860;28;20494;-95
2022/05/12 10:56:21;;;;;;;5.00;4.60;;;24.50;87.10;;;;;;4932516;28;20509;-94
2022/05/12 10:59:07;;;;;;;5.33;4.83;;;24.50;89.40;;;;;;4932547;28;20813;-94
2022/05/12 11:01:50;;;;;;;5.27;4.87;;;24.30;87.50;;;;;;4943601;28;20450;-94
2022/05/12 11:04:45;;;;;;;5.07;4.47;;;24.60;87.90;;;;;;4926078;28;20659;-95
2022/05/12 11:07:24;;;;;;;5.73;5.33;;;24.60;88.20;;;;;;4928397;28;20442;-95
2022/05/12 11:10:06;;;;;;;5.70;5.30;;;24.40;83.70;;;;;;4944600;28;20450;-94
2022/05/12 11:12:48;;;;;;;5.43;5.10;;;24.20;85.40;;;;;;4930931;28;20983;-96
2022/05/12 11:15:21;;;;;;;5.67;5.20;;;24.80;85.50;;;;;;4930307;28;20450;-95
2022/05/12 11:18:04;;;;;;;5.10;4.80;;;25.10;84.10;;;;;;4932560;28;20462;-94
2022/05/12 11:20:36;;;;;;;4.90;4.50;;;25.20;82.20;;;;;;4928803;28;20466;-94
2022/05/12 11:23:22;;;;;;;6.83;5.03;;;24.60;83.70;;;;;;4927347;28;20450;-94
2022/05/12 11:26:07;;;;;;;6.07;5.50;;;24.80;85.70;;;;;;4944501;28;20529;-95
2022/05/12 11:31:56;;;;;;;5.73;4.97;;;25.40;85.00;;;;;;4938731;28;20521;-95
2022/05/12 11:34:37;;;;;;;5.90;5.47;;;24.60;86.30;;;;;;4923177;28;20470;-94
2022/05/12 11:37:28;;;;;;;6.30;5.70;;;24.20;83.70;;;;;;4924050;29;21011;-95
2022/05/12 11:40:23;;;;;;;5.27;4.90;;;23.80;83.60;;;;;;4915101;29;20446;-91
2022/05/12 11:45:52;;;;;;;6.50;5.47;;;24.40;84.50;;;;;;4944545;28;20459;-95
2022/05/12 11:48:24;;;;;;;5.70;5.20;;;24.70;86.20;;;;;;4941060;28;20482;-96
2022/05/12 11:51:37;;;;;;;5.17;4.87;;;25.10;85.80;;;;;;4925300;28;20497;-96
2022/05/12 11:54:15;;;;;;;5.97;5.47;;;25.20;80.00;;;;;;4928125;29;20475;-96
2022/05/12 11:56:57;;;;;;;5.70;5.20;;;24.80;81.40;;;;;;4945997;28;20454;-95
2022/05/12 11:59:31;;;;;;;5.60;5.20;;;24.50;82.70;;;;;;4941154;28;20444;-96
2022/05/12 12:01:57;;;;;;;5.50;5.10;;;24.30;84.20;;;;;;4926451;29;20492;-96
2022/05/12 12:04:38;;;;;;;5.70;5.20;;;24.40;83.90;;;;;;4933667;28;21195;-95
2022/05/12 12:07:35;;;;;;;6.50;5.97;;;25.40;84.90;;;;;;4928148;28;20481;-96
2022/05/12 12:10:06;;;;;;;5.73;5.33;;;25.10;83.10;;;;;;4942711;28;20464;-94
2022/05/12 12:12:41;;;;;;;5.70;5.20;;;25.40;79.50;;;;;;4948507;28;20458;-96
2022/05/12 12:15:12;;;;;;;5.90;5.40;;;25.40;80.20;;;;;;4928897;28;20470;-94
2022/05/12 12:17:49;;;;;;;5.60;5.10;;;25.70;79.70;;;;;;4929985;28;20454;-93
2022/05/12 12:20:36;;;;;;;6.73;5.23;;;25.60;77.50;;;;;;4948507;28;20447;-96
2022/05/12 12:23:36;;;;;;;6.20;5.20;;;25.80;78.10;;;;;;4936967;28;20438;-96
2022/05/12 12:26:12;;;;;;;6.27;5.53;;;25.50;78.80;;;;;;4935571;28;20461;-96
2022/05/12 12:29:05;;;;;;;6.33;5.73;;;26.00;77.80;;;;;;4956306;28;20451;-96
2022/05/12 12:32:35;;;;;;;5.57;5.10;;;25.90;78.10;;;;;;4935275;28;20469;-96
2022/05/12 12:35:26;;;;;;;6.40;6.00;;;25.70;77.70;;;;;;4952330;28;20513;-94
2022/05/12 12:38:33;;;;;;;7.53;5.00;;;25.70;79.20;;;;;;4922914;28;21364;-94
2022/05/12 12:40:59;;;;;;;5.97;5.37;;;25.80;77.40;;;;;;4920947;29;20454;-92
2022/05/12 12:44:09;;;;;;;6.30;5.80;;;25.80;76.50;;;;;;4941450;28;20461;-93
2022/05/12 12:46:57;;;;;;;7.83;5.80;;;25.40;77.70;;;;;;5235305;22;20328;-95
2022/05/12 12:52:23;;;;;;;7.83;5.77;;;25.20;78.00;;;;;;5523072;23;20535;-96
2022/05/12 12:58:35;;;;;;;6.00;5.50;;;25.80;76.40;;;;;;4980482;28;20468;-93
2022/05/12 13:01:17;;;;;;;6.10;5.60;;;26.20;74.90;;;;;;4974026;28;20456;-93
2022/05/12 13:04:31;;;;;;;6.30;5.80;;;25.80;73.30;;;;;;4972081;28;20460;-90
2022/05/12 13:06:59;;;;;;;6.43;5.93;;;25.70;75.20;;;;;;4961782;28;20442;-90
2022/05/12 13:09:31;;;;;;;6.03;5.43;;;25.50;76.00;;;;;;4938167;28;20447;-90
2022/05/12 13:12:28;;;;;;;6.30;5.37;;;26.40;74.90;;;;;;4953783;28;21005;-90
2022/05/12 13:15:00;;;;;;;6.27;5.80;;;26.50;77.30;;;;;;4952453;28;20484;-91
2022/05/12 13:17:30;;;;;;;5.30;5.00;;;25.80;74.30;;;;;;4956515;28;20447;-90
2022/05/12 13:20:04;;;;;;;5.80;5.30;;;25.40;75.80;;;;;;4957025;28;20457;-91
2022/05/12 13:22:39;;;;;;;5.97;5.43;;;25.50;76.00;;;;;;4952467;28;20433;-91
2022/05/12 13:25:06;;;;;;;6.37;5.60;;;25.90;76.10;;;;;;4950226;28;20499;-91
2022/05/12 13:27:40;;;;;;;6.40;5.90;;;26.00;72.70;;;;;;4939070;28;20432;-90
2022/05/12 13:30:37;;;;;;;5.83;5.23;;;25.80;73.10;;;;;;4961514;28;20457;-91
2022/05/12 13:33:22;;;;;;;4.83;4.30;;;25.60;78.90;;;;;;4940048;28;20511;-90
2022/05/12 13:36:03;;;;;;;5.07;4.37;;;25.30;82.70;;;;;;4967148;28;20520;-90
2022/05/12 13:38:41;;;;;;;6.10;5.13;;;25.50;82.90;;;;;;4949822;28;20596;-91
2022/05/12 13:41:30;;;;;;;4.90;4.40;;;25.90;82.40;;;;;;4957109;28;20518;-90
2022/05/12 13:44:29;;;;;;;5.20;4.63;;;26.00;83.00;;;;;;4944831;28;20862;-90
2022/05/12 13:47:19;;;;;;;5.50;4.70;;;27.50;84.20;;;;;;4910733;28;20539;-90
2022/05/12 13:49:49;;;;;;;5.57;5.07;;;26.50;81.20;;;;;;4959577;28;21274;-91
2022/05/12 13:52:21;;;;;;;4.43;4.03;;;25.80;82.30;;;;;;4941234;28;20499;-91
2022/05/12 13:55:02;;;;;;;4.47;4.07;;;26.10;82.30;;;;;;4955898;28;22070;-91
2022/05/12 13:57:51;;;;;;;4.33;3.93;;;26.00;83.20;;;;;;4952748;28;20502;-90
2022/05/12 14:00:28;;;;;;;4.97;4.67;;;25.80;83.50;;;;;;4958654;28;20452;-91
2022/05/12 14:03:17;;;;;;;5.33;4.40;;;25.70;82.50;;;;;;4941648;28;21890;-90
2022/05/12 14:06:09;;;;;;;4.20;3.67;;;25.20;84.50;;;;;;4945211;28;21388;-89
2022/05/12 14:09:31;;;;;;;5.90;4.77;;;25.00;85.20;;;;;;4964284;28;20443;-90
2022/05/12 14:12:09;;;;;;;4.70;4.30;;;24.80;86.90;;;;;;4939447;28;20906;-87
2022/05/12 14:20:16;;;;;;;4.97;4.67;;;24.00;88.60;;;;;;4973913;28;20842;-89
2022/05/12 14:22:42;;;;;;;5.07;3.83;;;23.90;90.20;;;;;;4928823;28;20448;-88
2022/05/12 14:25:09;;;;;;;6.37;5.23;;;23.90;90.10;;;;;;4949952;28;20452;-90
2022/05/12 14:27:35;;;;;;;7.30;4.00;;;24.10;90.40;;;;;;4971369;28;20494;-92
2022/05/12 14:30:00;;;;;;;4.53;4.13;;;24.20;90.30;;;;;;4954839;28;20491;-90
2022/05/12 14:32:55;;;;;;;8.10;7.30;;;24.10;90.00;;;;;;4935618;28;20660;-91
2022/05/12 14:35:24;;;;;;;4.40;4.00;;;24.20;90.10;;;;;;4939582;28;20202;-90
2022/05/12 14:37:50;;;;;;;14.87;10.80;;;24.20;90.30;;;;;;4966965;28;20456;-90
2022/05/12 14:40:22;;;;;;;4.60;4.30;;;24.50;90.50;;;;;;4952350;28;20540;-89
2022/05/12 14:42:49;;;;;;;7.93;5.20;;;24.30;89.60;;;;;;4949774;28;20208;-90
2022/05/12 14:45:16;;;;;;;6.23;5.20;;;24.00;90.50;;;;;;4954790;28;20455;-89
2022/05/12 14:47:45;;;;;;;10.17;6.30;;;24.20;90.60;;;;;;4953049;28;20493;-89
2022/05/12 14:50:13;;;;;;;5.37;4.67;;;24.30;90.30;;;;;;4950847;28;20989;-89
2022/05/12 14:52:39;;;;;;;4.63;4.20;;;24.10;90.10;;;;;;4936698;28;20459;-90
2022/05/12 14:55:08;;;;;;;11.70;6.27;;;24.60;90.60;;;;;;4947991;28;20571;-90
2022/05/12 14:57:33;;;;;;;5.07;4.57;;;24.20;90.40;;;;;;4937872;28;20455;-90
2022/05/12 14:59:59;;;;;;;4.70;4.20;;;24.50;90.20;;;;;;4934986;28;20456;-90
2022/05/12 15:02:30;;;;;;;4.83;4.30;;;25.10;90.40;;;;;;4959106;28;20555;-91
2022/05/12 15:04:56;;;;;;;6.23;4.27;;;25.50;90.30;;;;;;4967437;28;20198;-91
2022/05/12 15:07:22;;;;;;;7.10;4.10;;;25.00;90.20;;;;;;4968003;28;20449;-90
2022/05/12 15:09:50;;;;;;;5.60;4.10;;;25.50;89.90;;;;;;4972602;28;20217;-89
2022/05/12 15:12:20;;;;;;;7.77;4.37;;;25.90;87.70;;;;;;4965058;28;20578;-89
2022/05/12 15:15:07;;;;;;;4.33;4.03;;;26.30;86.00;;;;;;4967220;28;20572;-89
2022/05/12 15:18:08;;;;;;;4.87;4.13;;;26.20;85.70;;;;;;4948860;28;20491;-90
2022/05/12 15:20:46;;;;;;;4.83;4.43;;;25.80;86.00;;;;;;4964101;28;20457;-90
2022/05/12 15:23:25;;;;;;;3.70;3.50;;;25.80;85.20;;;;;;4971144;28;20931;-91
2022/05/12 15:26:16;;;;;;;4.17;3.77;;;25.50;87.20;;;;;;4963385;28;20436;-91
2022/05/12 15:28:44;;;;;;;4.03;3.73;;;25.70;86.30;;;;;;4961060;28;20484;-90
2022/05/12 15:31:10;;;;;;;4.70;4.23;;;25.60;88.00;;;;;;4963708;28;20495;-91
2022/05/12 15:33:38;;;;;;;4.33;3.97;;;25.70;85.30;;;;;;4941634;28;20480;-91
2022/05/12 15:36:09;;;;;;;4.50;4.10;;;25.70;86.80;;;;;;4957180;28;20441;-91
2022/05/12 15:38:39;;;;;;;5.27;4.70;;;25.60;86.20;;;;;;4959269;28;20475;-88
2022/05/12 15:41:14;;;;;;;4.40;4.03;;;25.50;86.90;;;;;;4960773;28;20457;-92
2022/05/12 15:43:40;;;;;;;4.37;3.97;;;25.30;87.70;;;;;;4958594;28;20831;-91
2022/05/12 15:46:07;;;;;;;5.20;4.70;;;25.00;88.20;;;;;;4959441;28;20488;-91
2022/05/12 15:48:34;;;;;;;4.97;4.37;;;24.80;88.30;;;;;;4943159;28;20194;-90
2022/05/12 15:50:59;;;;;;;4.93;4.23;;;24.50;88.60;;;;;;4951331;28;20834;-89
2022/05/12 15:53:26;;;;;;;4.60;4.20;;;24.60;89.60;;;;;;4967899;28;20216;-90
2022/05/12 15:55:52;;;;;;;6.53;3.83;;;24.60;90.00;;;;;;4956530;28;24676;-90
2022/05/12 15:58:17;;;;;;;4.30;4.00;;;24.40;90.00;;;;;;4947000;28;20464;-89
2022/05/12 16:00:45;;;;;;;5.83;4.40;;;24.50;90.80;;;;;;4935838;28;21069;-89
2022/05/12 16:03:15;;;;;;;3.93;3.63;;;24.00;90.50;;;;;;4940213;28;20187;-90
2022/05/12 16:05:43;;;;;;;6.70;4.43;;;24.00;91.10;;;;;;4937111;28;20515;-89
2022/05/12 16:08:09;;;;;;;4.80;4.50;;;23.90;90.40;;;;;;4962543;28;20458;-89
2022/05/12 16:10:36;;;;;;;4.87;4.37;;;23.80;91.10;;;;;;4960611;28;20448;-89
2022/05/12 16:13:02;;;;;;;7.20;4.20;;;23.60;91.20;;;;;;4948807;28;20567;-90
2022/05/12 16:15:36;;;;;;;6.70;5.20;;;23.60;91.10;;;;;;4966929;28;20456;-89
2022/05/12 16:18:12;;;;;;;4.47;3.87;;;23.50;91.50;;;;;;4973154;28;20196;-89
2022/05/12 16:20:38;;;;;;;4.30;3.90;;;23.20;91.60;;;;;;4969169;28;20981;-90
2022/05/12 16:23:04;;;;;;;4.63;4.23;;;23.20;91.50;;;;;;4971134;28;20449;-89
2022/05/12 16:25:33;;;;;;;4.53;4.20;;;23.10;91.90;;;;;;4969960;28;20189;-89
2022/05/12 16:28:06;;;;;;;5.03;3.90;;;22.90;92.30;;;;;;4970764;28;20240;-89
2022/05/12 16:30:33;;;;;;;7.40;4.50;;;22.70;92.30;;;;;;4952904;28;20440;-89
2022/05/12 16:33:00;;;;;;;4.77;4.00;;;22.50;92.80;;;;;;4964038;28;20452;-90
2022/05/12 16:35:27;;;;;;;5.30;4.27;;;22.40;93.10;;;;;;4960389;28;20468;-89
2022/05/12 16:37:53;;;;;;;4.63;4.23;;;22.40;93.10;;;;;;4967837;28;20448;-89
2022/05/12 16:40:19;;;;;;;6.53;4.83;;;22.10;93.40;;;;;;4968597;28;20444;-88
2022/05/12 16:42:47;;;;;;;5.27;4.73;;;21.90;93.60;;;;;;4954704;28;20222;-89
2022/05/12 16:45:13;;;;;;;5.40;4.97;;;21.80;94.20;;;;;;4968045;28;20451;-90
2022/05/12 16:47:44;;;;;;;9.60;5.63;;;21.60;95.00;;;;;;4957957;28;20449;-89
2022/05/12 16:50:12;;;;;;;5.60;5.10;;;21.30;97.80;;;;;;4975848;28;20441;-89
2022/05/12 16:52:38;;;;;;;5.00;4.60;;;20.80;98.70;;;;;;4953901;28;20449;-89
2022/05/12 16:55:05;;;;;;;6.50;5.10;;;20.50;99.90;;;;;;4972316;28;20473;-89
2022/05/12 19:56:47;;;;;;;9.30;8.40;;;17.10;99.90;;;;;;4034876;23;20532;-93
2022/05/12 19:59:31;;;;;;;10.40;8.70;;;17.10;99.90;;;;;;4942853;28;20524;-93
2022/05/12 20:02:05;;;;;;;9.17;8.27;;;17.50;99.90;;;;;;4954758;28;20519;-95
2022/05/12 20:04:40;;;;;;;9.90;9.10;;;17.10;99.90;;;;;;4931577;28;20534;-93
2022/05/12 20:07:13;;;;;;;8.73;7.93;;;17.00;99.90;;;;;;4928871;28;20448;-94
2022/05/12 20:09:41;;;;;;;13.13;8.60;;;17.00;99.90;;;;;;4929935;28;20528;-94
2022/05/12 20:12:16;;;;;;;9.80;8.90;;;17.00;99.90;;;;;;4927398;28;20446;-93
2022/05/12 20:14:47;;;;;;;12.30;9.40;;;17.00;99.90;;;;;;4928364;28;20572;-94
2022/05/12 20:17:15;;;;;;;10.97;9.87;;;16.90;99.90;;;;;;4942113;28;20473;-94
2022/05/12 20:19:41;;;;;;;10.20;9.30;;;17.10;99.90;;;;;;4939817;28;20553;-94